Overview Statistics Trail Chart Weather Telemetry Raw packets
 

This is the latest recevied weather packets stored in our database for station/object N7BTW-13. If no packets are shown the sender has not sent any weather packets the latest 10 day(s).

<< 44 45 46 47 48 49 50 >>
Time Temp. Humidity Pressure Rain* Wind** Luminosity Snow
1787954417 28.33° C 41% - 0 mm - - -
1787953806 27.22° C 42% - 0 mm - - -
1787953210 27.78° C 41% - 0 mm - - -
1787952610 27.78° C 42% - 0 mm - - -
1787952006 27.78° C 41% - 0 mm - - -
1787951405 27.78° C 42% - 0 mm - - -
1787950812 27.78° C 42% - 0 mm - - -
1787950209 27.22° C 44% - 0 mm - - -
1787949607 26.67° C 45% - 0 mm - - -
1787949008 26.67° C 46% - 0 mm - - -
1787948406 26.67° C 46% - 0 mm - - -
1787947807 26.11° C 45% - 0 mm - - -
1787947213 25.56° C 48% - 0 mm - - -
1787946611 26.11° C 48% - 0 mm - - -
1787946006 24.44° C 50% - 0 mm - - -
1787945409 24.44° C 51% - 0 mm - - -
1787944809 25.56° C 49% - 0 mm - - -
1787944211 24.44° C 51% - 0 mm - - -
1787943606 25° C 51% - 0 mm - - -
1787943008 24.44° C 51% - 0 mm - - -
1787942408 23.89° C 53% - 0 mm - - -
1787941809 23.33° C 54% - 0 mm - - -
1787941208 23.89° C 54% - 0 mm - - -
1787940606 22.78° C 57% - 0 mm - - -
1787940008 21.11° C 62% - 0 mm - - -

* Rain latest hour (hover to see other rain measurements)
** Current wind speed in m/s (hover to see current wind gust speed)